Airfield :
LOGIN :

Register | Disclaimer

   EN    FR    IT 

 










Legend :    VFR   Marginal VFR   IFR   Intensive IFR   Very Intensive IFR
Visi :
Ceiling :
>= 8 km
>= 3000ft
5 to 8 km
1000 to 3000 ft
1500m to 5 km
500 to 1000 ft
800 to 1500m
200 to 500 ft
< 800m
< 200 ft
Symbols :   Thunderstorms  Fog  Heavy snow  Heavy precipitations  Wind > 20 kt
SIGMETs :     Misc.  Thunderstorms  Icing  Turbulence  Mountain Waves  Volcanic Ashes







- Airport Elevation : 19 ft
- IATA code : LCY
- Download approach charts


EGLC - London City

CURRENT METAR :
  • 301620Z AUTO 13014KT 9999 NCD 16/03 Q0999

EXPIRED METARs :
  • 301550Z AUTO 14015KT 9999 NCD 17/02 Q0999
  • 301520Z AUTO 14013KT 9999 NCD 17/03 Q0999
  • 301450Z AUTO 15018KT 9999 NCD 17/02 Q0999
  • 301420Z AUTO 14018KT 9999 NCD 17/02 Q1000
  • 301350Z AUTO 12015KT 9999 NCD 17/04 Q1000

TAF TAF EGLC
Valid from the 30 at 15:00 until the 30 at 21:00 UTC


301400Z 3015/3021 09015KT 9999 FEW048
BECMG 3015/3018 17009KT
TEMPO 3017/3021 9000 -RA
ATIS : +44 20 7646 0224
No reported NOTAMs for that airfield.



MET'MAP, your aeronautical weather chart ! - Copyright ORBIFLY December 2007 - Disclaimer

ORBIFLY MET'MAP TEAM :

Programming & Development : Alexandra Zaïnal
Concept & Development : Baudouin d'Aumeries
Co-Development & Prog : Marc-Olivier Méhu
Technical & hardware support : Manuel Goepfert

Contact : metmap@orbifly.com




SOURCES & CREDITS :

   NOAA